sensor_id;sensor_type;location;lat;lon;timestamp;pressure;altitude;pressure_sealevel;temperature;humidity
31044;BME280;17710;52.520;13.352;2023-01-13T00:00:21;100104.88;;;12.89;71.67
31044;BME280;17710;52.520;13.352;2023-01-13T00:02:49;100103.00;;;13.07;71.23
31044;BME280;17710;52.520;13.352;2023-01-13T00:05:16;100108.94;;;13.12;71.29
31044;BME280;17710;52.520;13.352;2023-01-13T00:07:42;100105.91;;;13.02;71.32
31044;BME280;17710;52.520;13.352;2023-01-13T00:10:10;100102.59;;;13.14;70.83
31044;BME280;17710;52.520;13.352;2023-01-13T00:12:38;100109.88;;;13.27;70.58
31044;BME280;17710;52.520;13.352;2023-01-13T00:15:06;100115.19;;;13.27;70.34
31044;BME280;17710;52.520;13.352;2023-01-13T00:17:33;100111.34;;;13.16;70.71
31044;BME280;17710;52.520;13.352;2023-01-13T00:20:01;100100.28;;;13.40;70.00
31044;BME280;17710;52.520;13.352;2023-01-13T00:22:27;100124.78;;;13.45;69.35
31044;BME280;17710;52.520;13.352;2023-01-13T00:24:53;100102.50;;;13.47;69.12
31044;BME280;17710;52.520;13.352;2023-01-13T00:27:22;100114.00;;;13.32;69.56
31044;BME280;17710;52.520;13.352;2023-01-13T00:29:49;100104.75;;;13.24;69.95
31044;BME280;17710;52.520;13.352;2023-01-13T00:32:15;100107.22;;;13.27;69.94
31044;BME280;17710;52.520;13.352;2023-01-13T00:34:42;100097.16;;;13.18;70.03
31044;BME280;17710;52.520;13.352;2023-01-13T00:37:09;100093.09;;;13.10;70.38
31044;BME280;17710;52.520;13.352;2023-01-13T00:39:38;100106.63;;;13.06;70.93
31044;BME280;17710;52.520;13.352;2023-01-13T00:42:05;100098.41;;;13.10;70.53
31044;BME280;17710;52.520;13.352;2023-01-13T00:44:49;100094.41;;;13.19;69.83
31044;BME280;17710;52.520;13.352;2023-01-13T00:47:16;100098.59;;;13.23;69.92
31044;BME280;17710;52.520;13.352;2023-01-13T00:49:42;100101.75;;;13.30;69.41
31044;BME280;17710;52.520;13.352;2023-01-13T00:52:11;100105.72;;;13.52;68.81
31044;BME280;17710;52.520;13.352;2023-01-13T00:54:38;100100.34;;;13.54;68.49
31044;BME280;17710;52.520;13.352;2023-01-13T00:57:04;100098.28;;;13.59;68.27
31044;BME280;17710;52.520;13.352;2023-01-13T00:59:30;100096.88;;;13.68;67.83
31044;BME280;17710;52.520;13.352;2023-01-13T01:01:57;100103.41;;;13.62;67.88
31044;BME280;17710;52.520;13.352;2023-01-13T01:04:23;100105.50;;;13.57;67.91
31044;BME280;17710;52.520;13.352;2023-01-13T01:06:49;100108.09;;;13.73;67.27
31044;BME280;17710;52.520;13.352;2023-01-13T01:09:17;100100.19;;;13.57;67.60
31044;BME280;17710;52.520;13.352;2023-01-13T01:11:43;100106.09;;;13.46;68.29
31044;BME280;17710;52.520;13.352;2023-01-13T01:14:11;100108.84;;;13.45;67.87
31044;BME280;17710;52.520;13.352;2023-01-13T01:16:39;100103.00;;;13.54;67.76
31044;BME280;17710;52.520;13.352;2023-01-13T01:19:06;100106.16;;;13.61;67.34
31044;BME280;17710;52.520;13.352;2023-01-13T01:21:33;100104.00;;;13.67;66.91
31044;BME280;17710;52.520;13.352;2023-01-13T01:24:02;100099.25;;;13.58;66.93
31044;BME280;17710;52.520;13.352;2023-01-13T01:26:30;100102.13;;;13.53;67.34
31044;BME280;17710;52.520;13.352;2023-01-13T01:28:57;100104.00;;;13.67;66.75
31044;BME280;17710;52.520;13.352;2023-01-13T01:31:25;100095.81;;;13.86;66.08
31044;BME280;17710;52.520;13.352;2023-01-13T01:33:53;100106.63;;;13.83;66.20
31044;BME280;17710;52.520;13.352;2023-01-13T01:36:21;100105.28;;;13.60;66.96
31044;BME280;17710;52.520;13.352;2023-01-13T01:38:48;100092.63;;;13.65;66.25
31044;BME280;17710;52.520;13.352;2023-01-13T01:41:17;100095.53;;;13.61;66.39
31044;BME280;17710;52.520;13.352;2023-01-13T01:43:48;100097.25;;;13.62;66.31
31044;BME280;17710;52.520;13.352;2023-01-13T01:46:24;100094.16;;;13.69;66.32
31044;BME280;17710;52.520;13.352;2023-01-13T01:48:51;100099.19;;;13.74;66.09
31044;BME280;17710;52.520;13.352;2023-01-13T01:51:18;100097.97;;;13.79;65.37
31044;BME280;17710;52.520;13.352;2023-01-13T01:53:44;100090.03;;;13.93;65.12
31044;BME280;17710;52.520;13.352;2023-01-13T01:56:12;100080.06;;;13.83;64.63
31044;BME280;17710;52.520;13.352;2023-01-13T01:58:43;100078.31;;;13.68;65.25
31044;BME280;17710;52.520;13.352;2023-01-13T02:01:13;100083.94;;;13.77;65.36
31044;BME280;17710;52.520;13.352;2023-01-13T02:03:42;100078.75;;;13.90;64.83
31044;BME280;17710;52.520;13.352;2023-01-13T02:06:11;100080.16;;;13.81;64.72
31044;BME280;17710;52.520;13.352;2023-01-13T02:08:39;100075.03;;;13.92;64.45
31044;BME280;17710;52.520;13.352;2023-01-13T02:11:06;100078.47;;;13.94;64.12
31044;BME280;17710;52.520;13.352;2023-01-13T02:13:53;100062.94;;;14.03;63.86
31044;BME280;17710;52.520;13.352;2023-01-13T02:16:20;100079.78;;;13.87;64.31
31044;BME280;17710;52.520;13.352;2023-01-13T02:18:53;100066.41;;;13.89;64.15
31044;BME280;17710;52.520;13.352;2023-01-13T02:21:54;100069.22;;;13.72;64.73
31044;BME280;17710;52.520;13.352;2023-01-13T02:24:54;100064.22;;;13.51;65.29
31044;BME280;17710;52.520;13.352;2023-01-13T02:27:33;100054.81;;;13.46;65.51
31044;BME280;17710;52.520;13.352;2023-01-13T02:30:14;100052.38;;;13.87;64.51
31044;BME280;17710;52.520;13.352;2023-01-13T02:33:08;100060.28;;;13.73;64.61
31044;BME280;17710;52.520;13.352;2023-01-13T02:35:45;100065.88;;;13.68;64.76
31044;BME280;17710;52.520;13.352;2023-01-13T02:38:15;100056.78;;;13.72;64.35
31044;BME280;17710;52.520;13.352;2023-01-13T02:40:46;100056.78;;;13.72;64.43
31044;BME280;17710;52.520;13.352;2023-01-13T02:43:19;100056.81;;;13.86;63.88
31044;BME280;17710;52.520;13.352;2023-01-13T02:46:08;100054.16;;;13.86;63.69
31044;BME280;17710;52.520;13.352;2023-01-13T02:48:38;100052.34;;;13.73;64.37
31044;BME280;17710;52.520;13.352;2023-01-13T02:51:09;100060.63;;;13.82;63.83
31044;BME280;17710;52.520;13.352;2023-01-13T02:53:41;100054.41;;;13.98;63.20
31044;BME280;17710;52.520;13.352;2023-01-13T02:56:10;100052.84;;;13.93;63.38
31044;BME280;17710;52.520;13.352;2023-01-13T02:58:39;100054.41;;;13.98;63.21
31044;BME280;17710;52.520;13.352;2023-01-13T03:01:08;100051.50;;;13.86;62.86
31044;BME280;17710;52.520;13.352;2023-01-13T03:03:34;100050.53;;;13.73;63.77
31044;BME280;17710;52.520;13.352;2023-01-13T03:06:11;100046.09;;;13.74;64.01
31044;BME280;17710;52.520;13.352;2023-01-13T03:08:44;100048.69;;;13.89;63.33
31044;BME280;17710;52.520;13.352;2023-01-13T03:11:14;100047.75;;;13.90;63.08
31044;BME280;17710;52.520;13.352;2023-01-13T03:14:08;100036.88;;;13.79;63.33
31044;BME280;17710;52.520;13.352;2023-01-13T03:16:50;100026.25;;;13.65;63.63
31044;BME280;17710;52.520;13.352;2023-01-13T03:19:28;100023.25;;;13.85;62.87
31044;BME280;17710;52.520;13.352;2023-01-13T03:21:58;100034.06;;;13.82;63.00
31044;BME280;17710;52.520;13.352;2023-01-13T03:24:33;100030.91;;;13.76;63.19
31044;BME280;17710;52.520;13.352;2023-01-13T03:27:05;100029.28;;;13.73;63.32
31044;BME280;17710;52.520;13.352;2023-01-13T03:29:37;100037.47;;;13.70;63.03
31044;BME280;17710;52.520;13.352;2023-01-13T03:32:10;100031.31;;;13.84;62.73
31044;BME280;17710;52.520;13.352;2023-01-13T03:34:40;100038.88;;;13.76;63.11
31044;BME280;17710;52.520;13.352;2023-01-13T03:37:11;100025.31;;;13.80;63.15
31044;BME280;17710;52.520;13.352;2023-01-13T03:39:42;100037.50;;;13.84;63.00
31044;BME280;17710;52.520;13.352;2023-01-13T03:42:16;100031.69;;;13.92;62.47
31044;BME280;17710;52.520;13.352;2023-01-13T03:44:47;100030.72;;;13.79;62.96
31044;BME280;17710;52.520;13.352;2023-01-13T03:47:19;100033.88;;;13.85;62.77
31044;BME280;17710;52.520;13.352;2023-01-13T03:49:52;100024.91;;;13.72;63.13
31044;BME280;17710;52.520;13.352;2023-01-13T03:52:24;100030.34;;;13.85;62.89
31044;BME280;17710;52.520;13.352;2023-01-13T03:54:54;100036.25;;;13.90;62.54
31044;BME280;17710;52.520;13.352;2023-01-13T03:57:26;100035.97;;;13.94;62.31
31044;BME280;17710;52.520;13.352;2023-01-13T03:59:57;100041.47;;;13.91;62.53
31044;BME280;17710;52.520;13.352;2023-01-13T04:02:35;100032.19;;;13.84;62.68
31044;BME280;17710;52.520;13.352;2023-01-13T04:05:06;100029.53;;;13.98;62.30
31044;BME280;17710;52.520;13.352;2023-01-13T04:07:43;100029.25;;;14.03;62.01
31044;BME280;17710;52.520;13.352;2023-01-13T04:10:13;100019.69;;;14.15;61.45
31044;BME280;17710;52.520;13.352;2023-01-13T04:12:45;100024.22;;;13.98;61.80
31044;BME280;17710;52.520;13.352;2023-01-13T04:15:27;100020.41;;;13.88;61.86
31044;BME280;17710;52.520;13.352;2023-01-13T04:18:00;100021.06;;;13.78;62.41
31044;BME280;17710;52.520;13.352;2023-01-13T04:20:27;100011.47;;;13.75;62.59
31044;BME280;17710;52.520;13.352;2023-01-13T04:22:53;100027.16;;;13.94;62.27
31044;BME280;17710;52.520;13.352;2023-01-13T04:25:20;100030.66;;;13.94;62.18
31044;BME280;17710;52.520;13.352;2023-01-13T04:27:46;100036.53;;;14.00;61.76
31044;BME280;17710;52.520;13.352;2023-01-13T04:30:12;100034.63;;;13.87;62.06
31044;BME280;17710;52.520;13.352;2023-01-13T04:32:39;100036.69;;;13.68;62.75
31044;BME280;17710;52.520;13.352;2023-01-13T04:35:07;100034.03;;;13.68;62.96
31044;BME280;17710;52.520;13.352;2023-01-13T04:37:34;100025.41;;;13.65;63.17
31044;BME280;17710;52.520;13.352;2023-01-13T04:40:00;100034.19;;;13.51;63.49
31044;BME280;17710;52.520;13.352;2023-01-13T04:42:26;100036.22;;;13.46;63.88
31044;BME280;17710;52.520;13.352;2023-01-13T04:44:53;100019.81;;;13.39;63.71
31044;BME280;17710;52.520;13.352;2023-01-13T04:47:20;100030.63;;;13.36;64.08
31044;BME280;17710;52.520;13.352;2023-01-13T04:49:47;100034.22;;;13.35;64.00
31044;BME280;17710;52.520;13.352;2023-01-13T04:52:15;100044.84;;;13.20;64.58
31044;BME280;17710;52.520;13.352;2023-01-13T04:54:41;100041.28;;;13.50;63.63
31044;BME280;17710;52.520;13.352;2023-01-13T04:57:07;100047.16;;;13.55;63.57
31044;BME280;17710;52.520;13.352;2023-01-13T04:59:34;100046.50;;;13.52;63.73
31044;BME280;17710;52.520;13.352;2023-01-13T05:02:00;100046.69;;;13.49;63.60
31044;BME280;17710;52.520;13.352;2023-01-13T05:04:27;100038.66;;;13.35;63.95
31044;BME280;17710;52.520;13.352;2023-01-13T05:06:53;100054.56;;;13.35;64.21
31044;BME280;17710;52.520;13.352;2023-01-13T05:09:21;100054.13;;;13.42;64.11
31044;BME280;17710;52.520;13.352;2023-01-13T05:11:47;100058.38;;;13.61;63.29
31044;BME280;17710;52.520;13.352;2023-01-13T05:14:31;100061.75;;;13.78;62.80
31044;BME280;17710;52.520;13.352;2023-01-13T05:17:26;100061.84;;;13.77;62.75
31044;BME280;17710;52.520;13.352;2023-01-13T05:19:56;100072.72;;;13.72;62.87
31044;BME280;17710;52.520;13.352;2023-01-13T05:22:22;100075.69;;;13.82;62.95
31044;BME280;17710;52.520;13.352;2023-01-13T05:25:08;100073.25;;;13.93;63.13
31044;BME280;17710;52.520;13.352;2023-01-13T05:27:47;100065.19;;;13.94;63.34
31044;BME280;17710;52.520;13.352;2023-01-13T05:30:14;100067.41;;;14.02;63.23
31044;BME280;17710;52.520;13.352;2023-01-13T05:32:40;100070.09;;;13.86;63.43
31044;BME280;17710;52.520;13.352;2023-01-13T05:35:07;100073.56;;;14.03;63.30
31044;BME280;17710;52.520;13.352;2023-01-13T05:37:34;100074.69;;;13.98;63.30
31044;BME280;17710;52.520;13.352;2023-01-13T05:40:01;100078.31;;;14.12;63.34
31044;BME280;17710;52.520;13.352;2023-01-13T05:42:46;100079.47;;;14.22;62.54
31044;BME280;17710;52.520;13.352;2023-01-13T05:45:30;100076.03;;;14.06;63.17
31044;BME280;17710;52.520;13.352;2023-01-13T05:47:57;100072.63;;;14.18;62.85
31044;BME280;17710;52.520;13.352;2023-01-13T05:50:24;100084.69;;;14.23;62.71
31044;BME280;17710;52.520;13.352;2023-01-13T05:52:50;100086.59;;;14.35;62.24
31044;BME280;17710;52.520;13.352;2023-01-13T05:55:17;100101.28;;;14.27;62.79
31044;BME280;17710;52.520;13.352;2023-01-13T05:57:43;100111.72;;;14.16;62.95
31044;BME280;17710;52.520;13.352;2023-01-13T06:00:12;100115.03;;;14.19;63.06
31044;BME280;17710;52.520;13.352;2023-01-13T06:02:38;100107.53;;;14.12;63.42
31044;BME280;17710;52.520;13.352;2023-01-13T06:05:05;100109.22;;;13.98;63.95
31044;BME280;17710;52.520;13.352;2023-01-13T06:07:32;100096.56;;;13.88;64.08
31044;BME280;17710;52.520;13.352;2023-01-13T06:09:58;100093.50;;;14.10;63.74
31044;BME280;17710;52.520;13.352;2023-01-13T06:12:24;100085.03;;;14.03;63.70
31044;BME280;17710;52.520;13.352;2023-01-13T06:14:51;100081.34;;;14.20;63.10
31044;BME280;17710;52.520;13.352;2023-01-13T06:17:18;100083.84;;;14.23;62.82
31044;BME280;17710;52.520;13.352;2023-01-13T06:19:45;100094.94;;;14.15;62.86
31044;BME280;17710;52.520;13.352;2023-01-13T06:22:14;100103.38;;;14.22;62.47
31044;BME280;17710;52.520;13.352;2023-01-13T06:24:42;100109.16;;;14.14;62.59
31044;BME280;17710;52.520;13.352;2023-01-13T06:27:10;100100.91;;;14.33;62.24
31044;BME280;17710;52.520;13.352;2023-01-13T06:29:37;100101.38;;;14.25;61.82
31044;BME280;17710;52.520;13.352;2023-01-13T06:32:06;100100.56;;;14.39;61.81
31044;BME280;17710;52.520;13.352;2023-01-13T06:34:37;100100.19;;;14.45;60.98
31044;BME280;17710;52.520;13.352;2023-01-13T06:37:05;100098.09;;;14.64;60.78
31044;BME280;17710;52.520;13.352;2023-01-13T06:39:33;100096.59;;;14.60;60.38
31044;BME280;17710;52.520;13.352;2023-01-13T06:42:01;100096.50;;;14.48;60.72
31044;BME280;17710;52.520;13.352;2023-01-13T06:44:46;100093.38;;;14.41;60.88
31044;BME280;17710;52.520;13.352;2023-01-13T06:47:12;100080.81;;;14.29;60.97
31044;BME280;17710;52.520;13.352;2023-01-13T06:49:40;100073.78;;;14.28;61.45
31044;BME280;17710;52.520;13.352;2023-01-13T06:52:06;100055.47;;;14.23;61.82
31044;BME280;17710;52.520;13.352;2023-01-13T06:54:33;100063.19;;;14.42;61.18
31044;BME280;17710;52.520;13.352;2023-01-13T06:56:59;100073.22;;;14.37;61.69
31044;BME280;17710;52.520;13.352;2023-01-13T06:59:26;100081.94;;;14.25;62.54
31044;BME280;17710;52.520;13.352;2023-01-13T07:01:53;100082.69;;;14.27;62.63
31044;BME280;17710;52.520;13.352;2023-01-13T07:04:19;100085.53;;;14.10;63.25
31044;BME280;17710;52.520;13.352;2023-01-13T07:06:47;100084.69;;;14.09;63.26
31044;BME280;17710;52.520;13.352;2023-01-13T07:09:13;100089.16;;;14.23;62.77
31044;BME280;17710;52.520;13.352;2023-01-13T07:11:40;100084.31;;;14.15;63.22
31044;BME280;17710;52.520;13.352;2023-01-13T07:14:06;100087.81;;;14.16;63.31
31044;BME280;17710;52.520;13.352;2023-01-13T07:16:50;100084.75;;;14.08;63.26
31044;BME280;17710;52.520;13.352;2023-01-13T07:19:17;100072.13;;;14.11;62.83
31044;BME280;17710;52.520;13.352;2023-01-13T07:21:49;100063.81;;;14.17;62.21
31044;BME280;17710;52.520;13.352;2023-01-13T07:24:16;100063.25;;;14.26;62.30
31044;BME280;17710;52.520;13.352;2023-01-13T07:26:43;100051.50;;;14.30;62.15
31044;BME280;17710;52.520;13.352;2023-01-13T07:29:09;100058.22;;;14.22;62.04
31044;BME280;17710;52.520;13.352;2023-01-13T07:31:36;100083.63;;;14.26;61.66
31044;BME280;17710;52.520;13.352;2023-01-13T07:34:03;100077.44;;;13.97;62.03
31044;BME280;17710;52.520;13.352;2023-01-13T07:36:30;100069.63;;;14.24;61.05
31044;BME280;17710;52.520;13.352;2023-01-13T07:39:20;100082.91;;;14.24;60.52
31044;BME280;17710;52.520;13.352;2023-01-13T07:41:46;100095.56;;;14.05;61.17
31044;BME280;17710;52.520;13.352;2023-01-13T07:44:30;100080.31;;;14.22;60.74
31044;BME280;17710;52.520;13.352;2023-01-13T07:46:56;100088.22;;;14.24;60.21
31044;BME280;17710;52.520;13.352;2023-01-13T07:49:22;100095.13;;;14.26;60.08
31044;BME280;17710;52.520;13.352;2023-01-13T07:51:49;100095.97;;;14.13;60.50
31044;BME280;17710;52.520;13.352;2023-01-13T07:54:16;100106.06;;;14.36;59.86
31044;BME280;17710;52.520;13.352;2023-01-13T07:56:43;100111.50;;;14.05;59.96
31044;BME280;17710;52.520;13.352;2023-01-13T07:59:12;100100.50;;;14.41;59.43
31044;BME280;17710;52.520;13.352;2023-01-13T08:01:38;100099.78;;;14.23;59.48
31044;BME280;17710;52.520;13.352;2023-01-13T08:04:05;100096.66;;;14.16;59.44
31044;BME280;17710;52.520;13.352;2023-01-13T08:06:31;100098.84;;;14.24;58.58
31044;BME280;17710;52.520;13.352;2023-01-13T08:08:58;100126.72;;;14.17;58.71
31044;BME280;17710;52.520;13.352;2023-01-13T08:11:25;100142.84;;;14.14;58.77
31044;BME280;17710;52.520;13.352;2023-01-13T08:13:54;100128.44;;;14.32;58.54
31044;BME280;17710;52.520;13.352;2023-01-13T08:16:21;100131.38;;;14.27;58.33
31044;BME280;17710;52.520;13.352;2023-01-13T08:18:48;100132.31;;;14.26;58.41
31044;BME280;17710;52.520;13.352;2023-01-13T08:21:19;100142.31;;;14.23;58.26
31044;BME280;17710;52.520;13.352;2023-01-13T08:23:46;100154.84;;;14.35;57.58
31044;BME280;17710;52.520;13.352;2023-01-13T08:26:17;100149.94;;;14.13;57.91
31044;BME280;17710;52.520;13.352;2023-01-13T08:28:45;100155.97;;;14.17;57.72
31044;BME280;17710;52.520;13.352;2023-01-13T08:31:14;100146.56;;;14.25;57.72
31044;BME280;17710;52.520;13.352;2023-01-13T08:33:40;100138.91;;;14.35;57.52
31044;BME280;17710;52.520;13.352;2023-01-13T08:36:09;100141.13;;;14.13;57.97
31044;BME280;17710;52.520;13.352;2023-01-13T08:38:37;100138.91;;;13.91;58.45
31044;BME280;17710;52.520;13.352;2023-01-13T08:41:08;100132.88;;;14.03;58.27
31044;BME280;17710;52.520;13.352;2023-01-13T08:43:34;100141.94;;;13.99;58.24
31044;BME280;17710;52.520;13.352;2023-01-13T08:46:02;100140.91;;;14.02;58.34
31044;BME280;17710;52.520;13.352;2023-01-13T08:48:30;100122.69;;;13.95;58.14
31044;BME280;17710;52.520;13.352;2023-01-13T08:51:00;100149.00;;;14.14;57.67
31044;BME280;17710;52.520;13.352;2023-01-13T08:53:27;100161.66;;;13.95;58.41
31044;BME280;17710;52.520;13.352;2023-01-13T08:55:53;100174.53;;;13.87;58.44
31044;BME280;17710;52.520;13.352;2023-01-13T08:58:20;100178.84;;;13.74;58.99
31044;BME280;17710;52.520;13.352;2023-01-13T09:00:47;100171.59;;;13.91;58.35
31044;BME280;17710;52.520;13.352;2023-01-13T09:03:15;100171.66;;;13.76;58.72
31044;BME280;17710;52.520;13.352;2023-01-13T09:05:41;100168.28;;;13.72;59.09
31044;BME280;17710;52.520;13.352;2023-01-13T09:08:08;100129.16;;;13.76;58.77
31044;BME280;17710;52.520;13.352;2023-01-13T09:10:34;100113.91;;;13.79;58.58
31044;BME280;17710;52.520;13.352;2023-01-13T09:13:01;100101.47;;;13.80;58.66
31044;BME280;17710;52.520;13.352;2023-01-13T09:15:39;100010.56;;;13.90;58.46
31044;BME280;17710;52.520;13.352;2023-01-13T09:18:06;100052.97;;;14.06;57.34
31044;BME280;17710;52.520;13.352;2023-01-13T09:20:34;100134.78;;;14.15;56.91
31044;BME280;17710;52.520;13.352;2023-01-13T09:23:01;100151.00;;;14.11;57.22
31044;BME280;17710;52.520;13.352;2023-01-13T09:25:27;100154.72;;;14.22;57.13
31044;BME280;17710;52.520;13.352;2023-01-13T09:27:54;100167.66;;;13.98;57.11
31044;BME280;17710;52.520;13.352;2023-01-13T09:30:21;100157.97;;;14.27;56.31
31044;BME280;17710;52.520;13.352;2023-01-13T09:32:47;100151.84;;;14.41;55.83
31044;BME280;17710;52.520;13.352;2023-01-13T09:35:14;100138.84;;;14.07;56.23
31044;BME280;17710;52.520;13.352;2023-01-13T09:37:42;100136.50;;;14.16;56.04
31044;BME280;17710;52.520;13.352;2023-01-13T09:40:14;100138.66;;;14.10;55.89
31044;BME280;17710;52.520;13.352;2023-01-13T09:42:44;100130.09;;;14.05;56.44
31044;BME280;17710;52.520;13.352;2023-01-13T09:45:32;100113.94;;;13.93;56.63
31044;BME280;17710;52.520;13.352;2023-01-13T09:48:09;100116.09;;;13.87;56.60
31044;BME280;17710;52.520;13.352;2023-01-13T09:50:47;100123.06;;;13.89;57.04
31044;BME280;17710;52.520;13.352;2023-01-13T09:53:20;100145.38;;;13.71;57.69
31044;BME280;17710;52.520;13.352;2023-01-13T09:55:47;100151.97;;;13.48;58.64
31044;BME280;17710;52.520;13.352;2023-01-13T09:58:16;100159.75;;;13.67;58.52
31044;BME280;17710;52.520;13.352;2023-01-13T10:00:47;100155.44;;;13.80;57.82
31044;BME280;17710;52.520;13.352;2023-01-13T10:03:19;100147.56;;;13.79;57.98
31044;BME280;17710;52.520;13.352;2023-01-13T10:05:51;100149.91;;;13.99;57.59
31044;BME280;17710;52.520;13.352;2023-01-13T10:08:24;100160.44;;;14.01;57.32
31044;BME280;17710;52.520;13.352;2023-01-13T10:10:54;100169.09;;;14.04;57.21
31044;BME280;17710;52.520;13.352;2023-01-13T10:13:23;100166.19;;;13.47;56.88
31044;BME280;17710;52.520;13.352;2023-01-13T10:16:12;100168.41;;;13.55;57.11
31044;BME280;17710;52.520;13.352;2023-01-13T10:18:51;100168.56;;;13.68;56.68
31044;BME280;17710;52.520;13.352;2023-01-13T10:21:51;100164.41;;;13.93;55.76
31044;BME280;17710;52.520;13.352;2023-01-13T10:24:31;100162.38;;;14.13;55.12
31044;BME280;17710;52.520;13.352;2023-01-13T10:27:03;100160.00;;;14.08;54.60
31044;BME280;17710;52.520;13.352;2023-01-13T10:29:32;100157.94;;;13.83;54.92
31044;BME280;17710;52.520;13.352;2023-01-13T10:31:59;100156.88;;;13.86;55.00
31044;BME280;17710;52.520;13.352;2023-01-13T10:34:27;100163.41;;;13.80;54.95
31044;BME280;17710;52.520;13.352;2023-01-13T10:36:55;100160.16;;;13.91;54.34
31044;BME280;17710;52.520;13.352;2023-01-13T10:39:26;100165.59;;;14.04;53.77
31044;BME280;17710;52.520;13.352;2023-01-13T10:42:02;100157.16;;;14.11;53.36
31044;BME280;17710;52.520;13.352;2023-01-13T10:44:29;100156.31;;;14.25;52.67
31044;BME280;17710;52.520;13.352;2023-01-13T10:46:56;100152.31;;;14.18;52.91
31044;BME280;17710;52.520;13.352;2023-01-13T10:49:29;100150.31;;;14.07;52.93
31044;BME280;17710;52.520;13.352;2023-01-13T10:51:57;100148.56;;;13.92;53.55
31044;BME280;17710;52.520;13.352;2023-01-13T10:54:25;100168.34;;;13.86;53.96
31044;BME280;17710;52.520;13.352;2023-01-13T10:57:14;100158.53;;;13.73;54.32
31044;BME280;17710;52.520;13.352;2023-01-13T10:59:43;100156.50;;;13.62;54.31
31044;BME280;17710;52.520;13.352;2023-01-13T11:02:24;100157.28;;;13.64;54.31
31044;BME280;17710;52.520;13.352;2023-01-13T11:05:01;100159.22;;;13.76;53.79
31044;BME280;17710;52.520;13.352;2023-01-13T11:07:30;100152.63;;;13.83;53.66
31044;BME280;17710;52.520;13.352;2023-01-13T11:10:14;100154.69;;;13.78;54.12
31044;BME280;17710;52.520;13.352;2023-01-13T11:12:46;100168.63;;;13.82;53.79
31044;BME280;17710;52.520;13.352;2023-01-13T11:15:17;100167.84;;;13.80;54.18
31044;BME280;17710;52.520;13.352;2023-01-13T11:17:47;100146.63;;;14.10;53.22
31044;BME280;17710;52.520;13.352;2023-01-13T11:20:20;100153.63;;;13.96;52.66
31044;BME280;17710;52.520;13.352;2023-01-13T11:22:54;100158.56;;;14.03;52.74
31044;BME280;17710;52.520;13.352;2023-01-13T11:25:27;100155.25;;;14.13;51.77
31044;BME280;17710;52.520;13.352;2023-01-13T11:28:00;100160.41;;;13.86;51.69
31044;BME280;17710;52.520;13.352;2023-01-13T11:30:39;100163.56;;;13.93;51.28
31044;BME280;17710;52.520;13.352;2023-01-13T11:33:25;100157.50;;;14.05;50.63
31044;BME280;17710;52.520;13.352;2023-01-13T11:36:03;100155.47;;;14.10;51.09
31044;BME280;17710;52.520;13.352;2023-01-13T11:38:42;100159.75;;;14.27;50.98
31044;BME280;17710;52.520;13.352;2023-01-13T11:41:20;100165.63;;;14.18;50.44
31044;BME280;17710;52.520;13.352;2023-01-13T11:43:51;100158.41;;;14.20;49.94
31044;BME280;17710;52.520;13.352;2023-01-13T11:46:20;100157.72;;;14.02;49.77
31044;BME280;17710;52.520;13.352;2023-01-13T11:48:51;100149.47;;;14.07;50.09
31044;BME280;17710;52.520;13.352;2023-01-13T11:51:27;100155.59;;;14.23;49.05
31044;BME280;17710;52.520;13.352;2023-01-13T11:54:24;100148.59;;;13.76;49.67
31044;BME280;17710;52.520;13.352;2023-01-13T11:57:11;100152.44;;;13.86;49.18
31044;BME280;17710;52.520;13.352;2023-01-13T12:00:15;100161.53;;;13.82;48.99
31044;BME280;17710;52.520;13.352;2023-01-13T12:02:51;100153.44;;;13.54;49.38
31044;BME280;17710;52.520;13.352;2023-01-13T12:05:25;100148.91;;;13.40;49.75
31044;BME280;17710;52.520;13.352;2023-01-13T12:08:01;100159.88;;;13.34;49.30
31044;BME280;17710;52.520;13.352;2023-01-13T12:10:39;100166.53;;;13.57;48.52
31044;BME280;17710;52.520;13.352;2023-01-13T12:13:19;100160.19;;;13.60;48.52
31044;BME280;17710;52.520;13.352;2023-01-13T12:16:03;100163.03;;;13.56;48.30
31044;BME280;17710;52.520;13.352;2023-01-13T12:18:42;100154.44;;;13.67;47.92
31044;BME280;17710;52.520;13.352;2023-01-13T12:21:19;100157.63;;;13.58;47.93
31044;BME280;17710;52.520;13.352;2023-01-13T12:23:53;100166.00;;;13.66;47.76
31044;BME280;17710;52.520;13.352;2023-01-13T12:26:20;100164.56;;;13.29;47.70
31044;BME280;17710;52.520;13.352;2023-01-13T12:28:53;100160.91;;;13.32;48.28
31044;BME280;17710;52.520;13.352;2023-01-13T12:31:22;100164.25;;;13.51;47.88
31044;BME280;17710;52.520;13.352;2023-01-13T12:33:56;100159.69;;;13.22;47.99
31044;BME280;17710;52.520;13.352;2023-01-13T12:36:28;100162.94;;;13.58;47.17
31044;BME280;17710;52.520;13.352;2023-01-13T12:39:03;100168.81;;;13.79;47.15
31044;BME280;17710;52.520;13.352;2023-01-13T12:41:39;100170.66;;;13.92;46.28
31044;BME280;17710;52.520;13.352;2023-01-13T12:45:15;100168.94;;;13.62;46.38
31044;BME280;17710;52.520;13.352;2023-01-13T12:47:44;100156.38;;;13.79;45.89
31044;BME280;17710;52.520;13.352;2023-01-13T12:50:36;100176.97;;;13.60;46.25
31044;BME280;17710;52.520;13.352;2023-01-13T12:53:32;100184.06;;;13.75;45.94
31044;BME280;17710;52.520;13.352;2023-01-13T12:56:28;100176.47;;;13.99;44.84
31044;BME280;17710;52.520;13.352;2023-01-13T13:02:31;100181.56;;;13.72;44.80
31044;BME280;17710;52.520;13.352;2023-01-13T13:05:02;100166.13;;;13.65;43.95